createdAt,value
2023-03-29T00:02:04.261Z,97496.00
2023-03-29T00:04:31.383Z,97504.00
2023-03-29T00:07:03.911Z,97495.00
2023-03-29T00:09:33.261Z,97501.00
2023-03-29T00:12:01.547Z,97493.00
2023-03-29T00:14:30.722Z,97497.00
2023-03-29T00:16:59.128Z,97505.00
2023-03-29T00:19:26.203Z,97494.00
2023-03-29T00:21:53.196Z,97494.00
2023-03-29T00:24:21.163Z,97492.00
2023-03-29T00:26:48.412Z,97486.00
2023-03-29T00:29:16.037Z,97492.00
2023-03-29T00:31:45.778Z,97487.00
2023-03-29T00:34:12.696Z,97491.00
2023-03-29T00:36:40.605Z,97497.00
2023-03-29T00:39:07.420Z,97490.00
2023-03-29T00:41:34.401Z,97475.00
2023-03-29T00:44:05.585Z,97483.00
2023-03-29T00:46:34.814Z,97483.00
2023-03-29T00:49:12.642Z,97470.00
2023-03-29T00:51:41.410Z,97486.00
2023-03-29T00:54:14.797Z,97471.00
2023-03-29T00:56:47.416Z,97475.00
2023-03-29T00:59:19.330Z,97468.00
2023-03-29T01:01:54.598Z,97462.00
2023-03-29T01:05:05.570Z,97453.00
2023-03-29T01:07:50.994Z,97462.00
2023-03-29T01:10:32.347Z,97458.00
2023-03-29T01:13:09.500Z,97456.00
2023-03-29T01:15:39.708Z,97464.00
2023-03-29T01:18:06.715Z,97458.00
2023-03-29T01:21:23.480Z,97460.00
2023-03-29T01:24:50.415Z,97474.00
2023-03-29T01:27:49.804Z,97468.00
2023-03-29T01:30:26.944Z,97467.00
2023-03-29T01:33:24.298Z,97467.00
2023-03-29T01:36:17.357Z,97465.00
2023-03-29T01:38:51.597Z,97463.00
2023-03-29T01:41:18.440Z,97466.00
2023-03-29T01:44:00.346Z,97467.00
2023-03-29T01:46:47.985Z,97478.00
2023-03-29T01:49:27.598Z,97486.00
2023-03-29T01:52:24.307Z,97481.00
2023-03-29T01:55:04.737Z,97489.00
2023-03-29T01:57:33.578Z,97483.00
2023-03-29T02:00:07.187Z,97482.00
2023-03-29T02:02:34.606Z,97478.00
2023-03-29T02:05:01.596Z,97479.00
2023-03-29T02:07:37.266Z,97471.00
2023-03-29T02:10:06.932Z,97464.00
2023-03-29T02:12:34.231Z,97457.00
2023-03-29T02:15:01.173Z,97460.00
2023-03-29T02:17:28.667Z,97462.00
2023-03-29T02:20:14.912Z,97456.00
2023-03-29T02:22:52.596Z,97433.00
2023-03-29T02:25:19.910Z,97442.00
2023-03-29T02:27:46.736Z,97437.00
2023-03-29T02:30:17.061Z,97435.00
2023-03-29T02:32:56.687Z,97430.00
2023-03-29T02:35:35.020Z,97424.00
2023-03-29T02:38:10.462Z,97424.00
2023-03-29T02:40:39.153Z,97415.00
2023-03-29T02:43:08.289Z,97401.00
2023-03-29T02:45:37.324Z,97406.00
2023-03-29T02:48:10.271Z,97391.00
2023-03-29T02:50:38.878Z,97392.00
2023-03-29T02:53:52.308Z,97380.00
2023-03-29T02:56:20.564Z,97373.00
2023-03-29T02:58:47.365Z,97379.00
2023-03-29T03:01:16.091Z,97368.00
2023-03-29T03:03:43.051Z,97369.00
2023-03-29T03:06:09.983Z,97370.00
2023-03-29T03:08:37.422Z,97364.00
2023-03-29T03:11:04.530Z,97365.00
2023-03-29T03:13:31.365Z,97369.00
2023-03-29T03:15:58.198Z,97367.00
2023-03-29T03:18:25.060Z,97359.00
2023-03-29T03:21:01.723Z,97366.00
2023-03-29T03:23:29.457Z,97363.00
2023-03-29T03:25:56.980Z,97350.00
2023-03-29T03:28:24.513Z,97349.00
2023-03-29T03:30:51.298Z,97343.00
2023-03-29T03:33:19.323Z,97355.00
2023-03-29T03:35:48.776Z,97347.00
2023-03-29T03:38:15.606Z,97351.00
2023-03-29T03:40:42.624Z,97354.00
2023-03-29T03:43:09.985Z,97358.00
2023-03-29T03:45:36.846Z,97356.00
2023-03-29T03:48:03.717Z,97349.00
2023-03-29T03:50:30.523Z,97351.00
2023-03-29T03:52:57.350Z,97354.00
2023-03-29T03:55:24.177Z,97356.00
2023-03-29T03:57:51.983Z,97354.00
2023-03-29T04:00:21.641Z,97351.00
2023-03-29T04:02:48.936Z,97353.00
2023-03-29T04:05:17.179Z,97349.00
2023-03-29T04:07:44.102Z,97343.00
2023-03-29T04:10:11.348Z,97350.00
2023-03-29T04:12:39.602Z,97353.00
2023-03-29T04:15:07.411Z,97342.00
2023-03-29T04:17:34.444Z,97355.00
2023-03-29T04:20:03.496Z,97356.00
2023-03-29T04:22:30.369Z,97366.00
2023-03-29T04:24:57.156Z,97361.00
2023-03-29T04:27:23.945Z,97360.00
2023-03-29T04:29:50.716Z,97365.00
2023-03-29T04:32:17.791Z,97352.00
2023-03-29T04:34:44.550Z,97354.00
2023-03-29T04:37:11.294Z,97353.00
2023-03-29T04:39:38.781Z,97362.00
2023-03-29T04:42:06.218Z,97344.00
2023-03-29T04:44:33.950Z,97349.00
2023-03-29T04:47:01.803Z,97353.00
2023-03-29T04:49:29.054Z,97353.00
2023-03-29T04:51:55.926Z,97350.00
2023-03-29T04:54:22.902Z,97350.00
2023-03-29T04:56:51.619Z,97354.00
2023-03-29T04:59:18.881Z,97353.00
2023-03-29T05:01:45.763Z,97352.00
2023-03-29T05:04:13.841Z,97349.00
2023-03-29T05:06:41.416Z,97354.00
2023-03-29T05:09:08.793Z,97352.00
2023-03-29T05:11:36.204Z,97353.00
2023-03-29T05:14:07.149Z,97340.00
2023-03-29T05:16:34.634Z,97345.00
2023-03-29T05:19:01.965Z,97352.00
2023-03-29T05:21:28.825Z,97348.00
2023-03-29T05:23:55.794Z,97342.00
2023-03-29T05:26:23.774Z,97332.00
2023-03-29T05:28:50.870Z,97323.00
2023-03-29T05:31:18.536Z,97320.00
2023-03-29T05:33:47.721Z,97332.00
2023-03-29T05:36:18.850Z,97347.00
2023-03-29T05:38:46.807Z,97336.00
2023-03-29T05:41:15.989Z,97344.00
2023-03-29T05:43:42.899Z,97341.00
2023-03-29T05:46:10.067Z,97345.00
2023-03-29T05:48:37.279Z,97339.00
2023-03-29T05:51:04.834Z,97345.00
2023-03-29T05:53:32.179Z,97341.00
2023-03-29T05:55:59.157Z,97331.00
2023-03-29T05:58:26.526Z,97339.00
2023-03-29T06:00:53.506Z,97325.00
2023-03-29T06:03:25.315Z,97326.00
2023-03-29T06:05:59.536Z,97324.00
2023-03-29T06:08:27.875Z,97331.00
2023-03-29T06:11:10.855Z,97321.00
2023-03-29T06:13:38.796Z,97302.00
2023-03-29T06:16:10.839Z,97308.00
2023-03-29T06:18:41.335Z,97300.00
2023-03-29T06:21:09.411Z,97309.00
2023-03-29T06:23:36.897Z,97314.00
2023-03-29T06:26:05.962Z,97302.00
2023-03-29T06:28:33.016Z,97293.00
2023-03-29T06:31:03.019Z,97309.00
2023-03-29T06:33:32.437Z,97311.00
2023-03-29T06:35:59.750Z,97306.00
2023-03-29T06:38:28.318Z,97302.00
2023-03-29T06:41:08.037Z,97308.00
2023-03-29T06:43:34.894Z,97303.00
2023-03-29T06:46:02.658Z,97308.00
2023-03-29T06:48:30.351Z,97304.00
2023-03-29T06:50:57.262Z,97307.00
2023-03-29T06:53:24.376Z,97307.00
2023-03-29T06:55:52.428Z,97308.00
2023-03-29T06:58:19.636Z,97310.00
2023-03-29T07:00:47.478Z,97309.00
2023-03-29T07:03:20.235Z,97319.00
2023-03-29T07:05:47.746Z,97316.00
2023-03-29T07:08:16.353Z,97314.00
2023-03-29T07:10:47.478Z,97317.00
2023-03-29T07:13:15.426Z,97316.00
2023-03-29T07:15:43.664Z,97302.00
2023-03-29T07:18:12.458Z,97312.00
2023-03-29T07:20:40.618Z,97302.00
2023-03-29T07:23:09.337Z,97302.00
2023-03-29T07:25:36.889Z,97318.00
2023-03-29T07:28:04.208Z,97317.00
2023-03-29T07:30:32.660Z,97314.00
2023-03-29T07:32:59.783Z,97305.00
2023-03-29T07:35:27.230Z,97315.00
2023-03-29T07:37:58.349Z,97318.00
2023-03-29T07:40:27.255Z,97303.00
2023-03-29T07:42:56.564Z,97303.00
2023-03-29T07:45:27.019Z,97303.00
2023-03-29T07:47:58.733Z,97299.00
2023-03-29T07:50:26.662Z,97307.00
2023-03-29T07:52:55.104Z,97303.00
2023-03-29T07:55:22.220Z,97308.00
2023-03-29T07:57:50.182Z,97315.00
2023-03-29T08:00:19.776Z,97314.00
2023-03-29T08:02:50.788Z,97322.00
2023-03-29T08:05:29.157Z,97321.00
2023-03-29T08:08:00.974Z,97319.00
2023-03-29T08:10:28.402Z,97319.00
2023-03-29T08:12:55.696Z,97314.00
2023-03-29T08:15:22.810Z,97317.00
2023-03-29T08:17:49.932Z,97314.00
2023-03-29T08:20:16.797Z,97308.00
2023-03-29T08:22:43.897Z,97314.00
2023-03-29T08:25:12.006Z,97320.00
2023-03-29T08:27:40.063Z,97321.00
2023-03-29T08:30:09.516Z,97321.00
2023-03-29T08:32:37.742Z,97325.00
2023-03-29T08:35:06.943Z,97325.00
2023-03-29T08:37:33.859Z,97316.00
2023-03-29T08:40:01.340Z,97310.00
2023-03-29T08:43:07.240Z,97316.00
2023-03-29T08:46:03.429Z,97312.00
2023-03-29T08:48:33.943Z,97300.00
2023-03-29T08:51:12.255Z,97307.00
2023-03-29T08:53:46.155Z,97309.00
2023-03-29T08:56:18.583Z,97302.00
2023-03-29T08:58:46.704Z,97293.00
2023-03-29T09:01:13.813Z,97299.00
2023-03-29T09:04:10.194Z,97294.00
2023-03-29T09:06:40.600Z,97293.00
2023-03-29T09:09:15.746Z,97304.00
2023-03-29T09:11:54.884Z,97300.00
2023-03-29T09:14:41.995Z,97303.00
2023-03-29T09:17:31.015Z,97306.00
2023-03-29T09:20:52.438Z,97316.00
2023-03-29T09:23:52.792Z,97307.00
2023-03-29T09:26:31.401Z,97302.00
2023-03-29T09:29:20.433Z,97308.00
2023-03-29T09:31:48.636Z,97287.00
2023-03-29T09:34:21.974Z,97303.00
2023-03-29T09:37:28.766Z,97295.00
2023-03-29T09:39:57.536Z,97292.00
2023-03-29T09:42:27.485Z,97295.00
2023-03-29T09:45:08.509Z,97288.00
2023-03-29T09:47:56.982Z,97287.00
2023-03-29T09:50:36.771Z,97288.00
2023-03-29T09:53:05.031Z,97289.00
2023-03-29T09:55:36.173Z,97288.00
2023-03-29T09:58:14.018Z,97278.00
2023-03-29T10:00:41.253Z,97279.00
2023-03-29T10:03:10.610Z,97276.00
2023-03-29T10:05:38.300Z,97264.00
2023-03-29T10:08:19.771Z,97253.00
2023-03-29T10:10:47.494Z,97252.00
2023-03-29T10:13:28.285Z,97263.00
2023-03-29T10:16:02.426Z,97275.00
2023-03-29T10:18:32.149Z,97272.00
2023-03-29T10:21:03.887Z,97266.00
2023-03-29T10:23:34.410Z,97256.00
2023-03-29T10:26:05.741Z,97262.00
2023-03-29T10:28:33.996Z,97257.00
2023-03-29T10:31:03.724Z,97255.00
2023-03-29T10:33:34.267Z,97262.00
2023-03-29T10:36:05.363Z,97256.00
2023-03-29T10:38:32.505Z,97254.00
2023-03-29T10:41:27.097Z,97248.00
2023-03-29T10:43:54.554Z,97253.00
2023-03-29T10:46:31.333Z,97255.00
2023-03-29T10:49:06.068Z,97254.00
2023-03-29T10:51:34.439Z,97256.00
2023-03-29T10:54:03.275Z,97245.00
2023-03-29T10:56:42.011Z,97256.00
2023-03-29T10:59:30.770Z,97245.00
2023-03-29T11:02:16.969Z,97253.00
2023-03-29T11:05:06.111Z,97254.00
2023-03-29T11:08:08.931Z,97247.00
2023-03-29T11:11:11.484Z,97252.00
2023-03-29T11:13:47.109Z,97238.00
2023-03-29T11:16:57.896Z,97247.00
2023-03-29T11:19:52.857Z,97233.00
2023-03-29T11:22:40.378Z,97242.00
2023-03-29T11:25:20.029Z,97227.00
2023-03-29T11:28:17.337Z,97219.00
2023-03-29T11:31:08.046Z,97225.00
2023-03-29T11:34:11.604Z,97212.00
2023-03-29T11:37:03.981Z,97221.00
2023-03-29T11:39:42.593Z,97224.00
2023-03-29T11:42:25.179Z,97222.00
2023-03-29T11:44:55.716Z,97227.00
2023-03-29T11:47:29.015Z,97216.00
2023-03-29T11:50:51.286Z,97221.00
2023-03-29T11:53:31.730Z,97214.00
2023-03-29T11:56:15.427Z,97219.00
2023-03-29T11:58:48.978Z,97220.00
2023-03-29T12:01:28.948Z,97218.00
2023-03-29T12:04:24.020Z,97213.00
2023-03-29T12:07:04.836Z,97207.00
2023-03-29T12:09:53.288Z,97203.00
2023-03-29T12:13:02.409Z,97206.00
2023-03-29T12:15:38.412Z,97206.00
2023-03-29T12:18:21.526Z,97195.00
2023-03-29T12:20:57.622Z,97199.00
2023-03-29T12:23:24.621Z,97203.00
2023-03-29T12:26:19.583Z,97210.00
2023-03-29T12:28:58.523Z,97208.00
2023-03-29T12:31:40.326Z,97210.00
2023-03-29T12:34:51.588Z,97208.00
2023-03-29T12:37:39.421Z,97213.00
2023-03-29T12:40:16.892Z,97205.00
2023-03-29T12:43:34.130Z,97208.00
2023-03-29T12:46:08.698Z,97200.00
2023-03-29T12:48:38.992Z,97207.00
2023-03-29T12:51:14.036Z,97203.00
2023-03-29T12:53:42.957Z,97206.00
2023-03-29T12:56:14.287Z,97188.00
2023-03-29T12:58:53.292Z,97202.00
2023-03-29T13:01:31.989Z,97200.00
2023-03-29T13:04:01.909Z,97191.00
2023-03-29T13:06:34.446Z,97196.00
2023-03-29T13:09:20.906Z,97183.00
2023-03-29T13:11:57.448Z,97194.00
2023-03-29T13:14:34.383Z,97178.00
2023-03-29T13:17:17.561Z,97195.00
2023-03-29T13:19:47.712Z,97184.00
2023-03-29T13:22:35.613Z,97187.00
2023-03-29T13:26:02.181Z,97190.00
2023-03-29T13:29:32.350Z,97189.00
2023-03-29T13:32:43.327Z,97190.00
2023-03-29T13:35:54.947Z,97186.00
2023-03-29T13:38:26.220Z,97184.00
2023-03-29T13:40:52.984Z,97182.00
2023-03-29T13:43:22.187Z,97182.00
2023-03-29T13:46:13.605Z,97170.00
2023-03-29T13:48:41.342Z,97166.00
2023-03-29T13:51:14.345Z,97161.00
2023-03-29T13:53:50.101Z,97166.00
2023-03-29T13:56:24.662Z,97164.00
2023-03-29T13:59:05.862Z,97159.00
2023-03-29T14:01:46.420Z,97150.00
2023-03-29T14:04:43.229Z,97150.00
2023-03-29T14:07:14.481Z,97154.00
2023-03-29T14:09:46.287Z,97159.00
2023-03-29T14:12:15.056Z,97148.00
2023-03-29T14:14:58.925Z,97140.00
2023-03-29T14:17:26.778Z,97136.00
2023-03-29T14:19:58.018Z,97143.00
2023-03-29T14:22:32.572Z,97149.00
2023-03-29T14:25:07.315Z,97150.00
2023-03-29T14:27:37.237Z,97147.00
2023-03-29T14:30:29.016Z,97134.00
2023-03-29T14:32:56.723Z,97134.00
2023-03-29T14:35:33.912Z,97134.00
2023-03-29T14:38:04.856Z,97149.00
2023-03-29T14:40:32.875Z,97143.00
2023-03-29T14:43:06.781Z,97143.00
2023-03-29T14:45:33.888Z,97136.00
2023-03-29T14:48:01.299Z,97131.00
2023-03-29T14:50:31.073Z,97143.00
2023-03-29T14:53:01.399Z,97135.00
2023-03-29T14:55:32.780Z,97125.00
2023-03-29T14:58:00.528Z,97134.00
2023-03-29T15:00:38.841Z,97131.00
2023-03-29T15:03:15.022Z,97126.00
2023-03-29T15:05:49.118Z,97115.00
2023-03-29T15:08:30.027Z,97121.00
2023-03-29T15:10:57.537Z,97124.00
2023-03-29T15:13:25.307Z,97124.00
2023-03-29T15:16:00.918Z,97126.00
2023-03-29T15:18:35.094Z,97121.00
2023-03-29T15:21:02.635Z,97128.00
2023-03-29T15:23:47.106Z,97130.00
2023-03-29T15:26:21.688Z,97133.00
2023-03-29T15:29:03.905Z,97131.00
2023-03-29T15:31:39.638Z,97129.00
2023-03-29T15:34:13.005Z,97130.00
2023-03-29T15:36:47.545Z,97120.00
2023-03-29T15:39:17.075Z,97125.00
2023-03-29T15:41:49.116Z,97122.00
2023-03-29T15:44:17.814Z,97119.00
2023-03-29T15:46:44.856Z,97125.00
2023-03-29T15:49:13.133Z,97117.00
2023-03-29T15:51:40.922Z,97115.00
2023-03-29T15:54:09.066Z,97115.00
2023-03-29T15:56:46.453Z,97111.00
2023-03-29T15:59:13.330Z,97101.00
2023-03-29T16:01:41.706Z,97102.00
2023-03-29T16:04:15.521Z,97105.00
2023-03-29T16:06:44.296Z,97103.00
2023-03-29T16:09:14.469Z,97093.00
2023-03-29T16:11:43.571Z,97095.00
2023-03-29T16:14:22.911Z,97083.00
2023-03-29T16:16:51.549Z,97071.00
2023-03-29T16:19:19.420Z,97074.00
2023-03-29T16:21:46.298Z,97073.00
2023-03-29T16:24:19.818Z,97082.00
2023-03-29T16:26:47.563Z,97074.00
2023-03-29T16:29:17.327Z,97078.00
2023-03-29T16:31:46.495Z,97075.00
2023-03-29T16:34:14.727Z,97075.00
2023-03-29T16:36:43.738Z,97080.00
2023-03-29T16:39:13.767Z,97073.00
2023-03-29T16:41:42.445Z,97079.00
2023-03-29T16:44:16.893Z,97072.00
2023-03-29T16:46:44.294Z,97072.00
2023-03-29T16:49:18.712Z,97079.00
2023-03-29T16:51:48.155Z,97068.00
2023-03-29T16:54:17.168Z,97068.00
2023-03-29T16:56:44.503Z,97083.00
2023-03-29T16:59:11.967Z,97079.00
2023-03-29T17:01:40.624Z,97084.00
2023-03-29T17:04:08.034Z,97070.00
2023-03-29T17:06:35.164Z,97063.00
2023-03-29T17:09:02.601Z,97079.00
2023-03-29T17:11:29.556Z,97079.00
2023-03-29T17:13:56.844Z,97082.00
2023-03-29T17:16:24.233Z,97077.00
2023-03-29T17:18:51.300Z,97081.00
2023-03-29T17:21:18.127Z,97078.00
2023-03-29T17:23:44.991Z,97073.00
2023-03-29T17:26:11.933Z,97069.00
2023-03-29T17:28:39.027Z,97078.00
2023-03-29T17:31:07.717Z,97078.00
2023-03-29T17:33:35.911Z,97076.00
2023-03-29T17:36:05.040Z,97077.00
2023-03-29T17:38:34.100Z,97074.00
2023-03-29T17:41:02.786Z,97069.00
2023-03-29T17:43:29.716Z,97070.00
2023-03-29T17:45:56.603Z,97078.00
2023-03-29T17:48:24.280Z,97074.00
2023-03-29T17:50:51.674Z,97088.00
2023-03-29T17:53:18.507Z,97085.00
2023-03-29T17:55:45.779Z,97089.00
2023-03-29T17:58:12.731Z,97083.00
2023-03-29T18:00:39.657Z,97085.00
2023-03-29T18:03:06.684Z,97092.00
2023-03-29T18:05:35.341Z,97085.00
2023-03-29T18:08:02.577Z,97091.00
2023-03-29T18:10:30.243Z,97095.00
2023-03-29T18:12:57.174Z,97104.00
2023-03-29T18:15:24.221Z,97098.00
2023-03-29T18:17:51.059Z,97094.00
2023-03-29T18:20:18.319Z,97092.00
2023-03-29T18:22:45.411Z,97085.00
2023-03-29T18:25:12.631Z,97095.00
2023-03-29T18:27:40.387Z,97092.00
2023-03-29T18:30:08.671Z,97102.00
2023-03-29T18:32:36.290Z,97089.00
2023-03-29T18:35:03.563Z,97089.00
2023-03-29T18:37:30.484Z,97096.00
2023-03-29T18:39:57.251Z,97105.00
2023-03-29T18:42:24.119Z,97110.00
2023-03-29T18:44:51.321Z,97106.00
2023-03-29T18:47:21.516Z,97101.00
2023-03-29T18:49:48.670Z,97103.00
2023-03-29T18:52:15.469Z,97096.00
2023-03-29T18:54:42.536Z,97089.00
2023-03-29T18:57:09.418Z,97093.00
2023-03-29T18:59:36.595Z,97083.00
2023-03-29T19:02:04.119Z,97089.00
2023-03-29T19:04:31.091Z,97077.00
2023-03-29T19:06:59.767Z,97079.00
2023-03-29T19:09:27.559Z,97074.00
2023-03-29T19:11:54.474Z,97076.00
2023-03-29T19:14:24.092Z,97066.00
2023-03-29T19:16:52.393Z,97066.00
2023-03-29T19:19:21.791Z,97064.00
2023-03-29T19:21:49.519Z,97064.00
2023-03-29T19:24:17.245Z,97061.00
2023-03-29T19:26:44.682Z,97071.00
2023-03-29T19:29:11.831Z,97073.00
2023-03-29T19:31:38.986Z,97070.00
2023-03-29T19:34:06.897Z,97059.00
2023-03-29T19:36:33.877Z,97063.00
2023-03-29T19:39:01.166Z,97070.00
2023-03-29T19:41:28.359Z,97063.00
2023-03-29T19:43:55.383Z,97066.00
2023-03-29T19:46:22.391Z,97064.00
2023-03-29T19:48:49.250Z,97077.00
2023-03-29T19:51:16.723Z,97066.00
2023-03-29T19:53:43.644Z,97067.00
2023-03-29T19:56:11.000Z,97055.00
2023-03-29T19:58:38.011Z,97054.00
2023-03-29T20:01:06.036Z,97055.00
2023-03-29T20:03:34.134Z,97050.00
2023-03-29T20:06:01.479Z,97041.00
2023-03-29T20:08:28.324Z,97043.00
2023-03-29T20:11:01.846Z,97041.00
2023-03-29T20:13:38.324Z,97042.00
2023-03-29T20:16:18.094Z,97029.00
2023-03-29T20:18:45.661Z,97028.00
2023-03-29T20:21:16.528Z,97025.00
2023-03-29T20:23:44.273Z,97023.00
2023-03-29T20:26:11.082Z,97023.00
2023-03-29T20:28:38.023Z,97023.00
2023-03-29T20:31:07.386Z,97015.00
2023-03-29T20:33:34.343Z,97009.00
2023-03-29T20:36:01.390Z,97014.00
2023-03-29T20:38:28.361Z,97013.00
2023-03-29T20:40:55.366Z,97016.00
2023-03-29T20:43:22.519Z,97006.00
2023-03-29T20:45:53.559Z,96999.00
2023-03-29T20:48:24.332Z,97003.00
2023-03-29T20:50:51.584Z,97009.00
2023-03-29T20:53:20.297Z,97000.00
2023-03-29T20:55:47.832Z,96991.00
2023-03-29T20:58:15.685Z,96986.00
2023-03-29T21:00:42.816Z,96999.00
2023-03-29T21:03:10.793Z,96978.00
2023-03-29T21:05:37.791Z,96983.00
2023-03-29T21:08:04.815Z,96992.00
2023-03-29T21:10:31.647Z,96987.00
2023-03-29T21:13:00.428Z,96983.00
2023-03-29T21:15:30.526Z,96981.00
2023-03-29T21:17:57.968Z,96972.00
2023-03-29T21:20:24.935Z,96974.00
2023-03-29T21:22:51.804Z,96969.00
2023-03-29T21:25:19.012Z,96960.00
2023-03-29T21:27:46.151Z,96966.00
2023-03-29T21:30:13.431Z,96961.00
2023-03-29T21:32:40.965Z,96972.00
2023-03-29T21:35:08.970Z,96970.00
2023-03-29T21:37:36.010Z,96982.00
2023-03-29T21:40:07.260Z,96980.00
2023-03-29T21:42:34.458Z,96972.00
2023-03-29T21:45:01.558Z,96959.00
2023-03-29T21:47:29.044Z,96959.00
2023-03-29T21:49:55.965Z,96949.00
2023-03-29T21:52:22.922Z,96951.00
2023-03-29T21:54:49.814Z,96952.00
2023-03-29T21:57:16.709Z,96953.00
2023-03-29T21:59:43.573Z,96939.00
2023-03-29T22:02:10.555Z,96942.00
2023-03-29T22:04:37.888Z,96943.00
2023-03-29T22:07:05.676Z,96934.00
2023-03-29T22:09:34.991Z,96956.00
2023-03-29T22:12:03.158Z,96946.00
2023-03-29T22:14:35.113Z,96947.00
2023-03-29T22:17:05.785Z,96940.00
2023-03-29T22:19:34.900Z,96941.00
2023-03-29T22:22:01.763Z,96935.00
2023-03-29T22:24:29.063Z,96948.00
2023-03-29T22:26:56.153Z,96976.00
2023-03-29T22:29:23.168Z,96955.00
2023-03-29T22:31:50.117Z,96939.00
2023-03-29T22:34:17.035Z,96953.00
2023-03-29T22:36:51.179Z,96947.00
2023-03-29T22:39:17.998Z,96952.00
2023-03-29T22:41:44.768Z,96934.00
2023-03-29T22:44:11.909Z,96930.00
2023-03-29T22:46:39.415Z,96935.00
2023-03-29T22:49:06.441Z,96943.00
2023-03-29T22:51:33.252Z,96954.00
2023-03-29T22:54:00.099Z,96953.00
2023-03-29T22:56:27.133Z,96955.00
2023-03-29T22:58:54.111Z,96952.00
2023-03-29T23:01:21.132Z,96948.00
2023-03-29T23:03:48.058Z,96932.00
2023-03-29T23:06:14.937Z,96926.00
2023-03-29T23:08:41.796Z,96915.00
2023-03-29T23:11:08.677Z,96922.00
2023-03-29T23:13:35.724Z,96911.00
2023-03-29T23:16:03.745Z,96902.00
2023-03-29T23:18:34.564Z,96920.00
2023-03-29T23:21:02.438Z,96920.00
2023-03-29T23:23:29.469Z,96912.00
2023-03-29T23:25:56.562Z,96908.00
2023-03-29T23:28:27.305Z,96913.00
2023-03-29T23:31:09.317Z,96912.00
2023-03-29T23:33:41.610Z,96900.00
2023-03-29T23:36:14.846Z,96908.00
2023-03-29T23:38:43.350Z,96907.00
2023-03-29T23:41:12.666Z,96894.00
2023-03-29T23:43:42.160Z,96903.00
2023-03-29T23:46:14.054Z,96894.00
2023-03-29T23:48:48.871Z,96881.00
2023-03-29T23:51:23.561Z,96888.00
2023-03-29T23:53:50.832Z,96884.00
2023-03-29T23:56:17.589Z,96879.00
2023-03-29T23:58:44.714Z,96884.00
